KLNN/LNN METAR and TAF weather

Enter ICAO airport designator
Station Type Date Time Source
KLNN METAR 2020/12/05 05:55 UTC NOAA

KLNN 050555Z AUTO 02006KT 10SM BKN027 OVC033 05/M01 A2991 RMK AO1 T00461010 10055 20045


Station Type Date Time Source
KLNN Decoded METAR 2020/12/05 05:55 UTC NOAA

Willoughby, OH, United States (KLNN) 41-41N 081-23W
Dec 05, 2020 - 12:55 AM EST / 2020.12.05 0555 UTC
Wind: from the NNE (020 degrees) at 7 MPH (6 KT):0
Visibility: 10 mile(s):0
Sky conditions: overcast
Temperature: 40.3 F (4.6 C)
Dew Point: 30.2 F (-1.0 C)
Relative Humidity: 66%
Pressure (altimeter): 29.91 in. Hg (1012 hPa)
ob: KLNN 050555Z AUTO 02006KT 10SM BKN027 OVC033 05/M01 A2991 RMK AO1 T00461010 10055 20045
cycle: 6

Station Type Date Time Source
KLNN TAF UTC NOAA

Error!

Example: see airport list